Time;durP1;ratioP1;P1;durP2;ratioP2;P2;SDS_P1;SDS_P2;PMS_P1;PMS_P2;Temp;Humidity;BMP_temperature;BMP_pressure;BME280_temperature;BME280_humidity;BME280_pressure;Samples;Min_cycle;Max_cycle;Signal;HPM_P1;HPM_P2
2022/10/26 00:00:42;;;;;;;2.00;1.80;;;18.90;73.50;19.90;100644.00;;;;5089920;28;20205;-49
2022/10/26 00:03:07;;;;;;;2.43;1.97;;;18.90;73.50;19.90;100634.00;;;;5089819;28;20205;-49
2022/10/26 00:05:33;;;;;;;3.03;2.10;;;18.90;73.50;19.90;100643.00;;;;5089511;28;20185;-49
2022/10/26 00:08:00;;;;;;;2.37;1.90;;;18.90;73.50;19.90;100637.00;;;;5089870;28;20248;-48
2022/10/26 00:10:26;;;;;;;2.17;1.73;;;18.90;73.50;19.90;100637.00;;;;5089325;28;20676;-49
2022/10/26 00:12:51;;;;;;;2.70;1.93;;;18.80;73.40;19.90;100632.00;;;;5089786;28;20174;-50
2022/10/26 00:15:18;;;;;;;3.03;1.90;;;18.80;73.40;19.90;100638.00;;;;5089229;28;20204;-50
2022/10/26 00:17:44;;;;;;;3.03;2.03;;;18.80;73.40;19.80;100632.00;;;;5089880;28;20180;-49
2022/10/26 00:20:10;;;;;;;2.73;1.77;;;18.80;73.40;19.80;100630.00;;;;5089597;28;20196;-48
2022/10/26 00:22:36;;;;;;;2.50;2.00;;;18.80;73.40;19.80;100621.00;;;;5090434;28;20197;-49
2022/10/26 00:25:02;;;;;;;1.97;1.77;;;18.80;73.40;19.80;100641.00;;;;5091271;28;20176;-51
2022/10/26 00:27:28;;;;;;;1.77;1.60;;;18.80;73.40;19.80;100633.00;;;;5090605;28;20609;-50
2022/10/26 00:29:53;;;;;;;2.20;2.00;;;18.80;73.40;19.80;100634.00;;;;5089400;28;20189;-51
2022/10/26 00:32:19;;;;;;;3.30;2.00;;;18.80;73.40;19.80;100634.00;;;;5089408;28;20691;-50
2022/10/26 00:34:45;;;;;;;1.83;1.53;;;18.80;73.40;19.80;100632.00;;;;5091147;28;20176;-50
2022/10/26 00:37:10;;;;;;;1.90;1.80;;;18.80;73.40;19.80;100616.00;;;;5099176;28;20238;-49
2022/10/26 00:39:36;;;;;;;2.13;1.80;;;18.70;73.30;19.80;100630.00;;;;5092392;28;20615;-50
2022/10/26 00:42:02;;;;;;;2.63;1.90;;;18.70;73.30;19.80;100633.00;;;;5089076;28;20279;-50
2022/10/26 00:44:46;;;;;;;2.37;2.00;;;18.80;73.40;19.70;100629.00;;;;5088891;28;20271;-49
2022/10/26 00:47:40;;;;;;;2.27;1.63;;;18.70;73.30;19.70;100628.00;;;;5088878;28;20223;-49
2022/10/26 00:50:30;;;;;;;2.00;1.70;;;18.80;73.30;19.70;100635.00;;;;5089140;28;20189;-50
2022/10/26 00:52:55;;;;;;;1.87;1.67;;;18.80;73.30;19.70;100629.00;;;;5087485;28;20220;-50
2022/10/26 00:55:23;;;;;;;2.30;1.90;;;18.70;73.30;19.70;100639.00;;;;5087385;28;20554;-49
2022/10/26 00:57:49;;;;;;;3.10;1.80;;;18.70;73.30;19.70;100636.00;;;;5087353;28;20181;-49
2022/10/26 01:00:15;;;;;;;2.00;1.60;;;18.70;73.30;19.70;100632.00;;;;5087718;28;20189;-49
2022/10/26 01:02:41;;;;;;;1.93;1.80;;;18.70;73.30;19.70;100628.00;;;;5088110;28;20196;-50
2022/10/26 01:05:07;;;;;;;2.30;1.70;;;18.70;73.30;19.70;100614.00;;;;5089441;28;20176;-50
2022/10/26 01:07:32;;;;;;;1.90;1.80;;;18.70;73.30;19.70;100629.00;;;;5087570;28;20544;-49
2022/10/26 01:09:58;;;;;;;1.70;1.60;;;18.70;73.30;19.70;100629.00;;;;5086956;28;20192;-49
2022/10/26 01:12:24;;;;;;;1.73;1.63;;;18.70;73.30;19.70;100627.00;;;;5087476;28;20758;-49
2022/10/26 01:14:50;;;;;;;1.67;1.57;;;18.70;73.30;19.70;100625.00;;;;5088198;28;20192;-50
2022/10/26 01:17:34;;;;;;;3.43;1.77;;;18.70;73.30;19.70;100614.00;;;;5087219;28;20173;-50
2022/10/26 01:20:53;;;;;;;1.77;1.63;;;18.70;73.30;19.70;100605.00;;;;5087090;28;20219;-49
2022/10/26 01:23:48;;;;;;;1.73;1.50;;;18.70;73.30;19.60;100603.00;;;;5070771;28;20708;-49
2022/10/26 01:26:39;;;;;;;2.53;1.60;;;18.70;73.30;19.60;100599.00;;;;5087170;28;20207;-49
2022/10/26 01:29:37;;;;;;;2.33;1.57;;;18.60;73.20;19.60;100596.00;;;;5087188;28;20937;-50
2022/10/26 01:32:12;;;;;;;2.33;1.63;;;18.60;73.20;19.60;100594.00;;;;5087543;28;20501;-51
2022/10/26 01:35:09;;;;;;;2.33;1.80;;;18.60;73.20;19.60;100595.00;;;;5086784;28;20196;-49
2022/10/26 01:37:38;;;;;;;2.13;1.70;;;18.60;73.20;19.60;100591.00;;;;5087442;28;20205;-51
2022/10/26 01:40:24;;;;;;;1.60;1.50;;;18.60;73.20;19.60;100586.00;;;;5070527;28;20192;-49
2022/10/26 01:42:52;;;;;;;1.50;1.40;;;18.60;73.20;19.60;100578.00;;;;5086947;28;20199;-50
2022/10/26 01:45:17;;;;;;;1.93;1.70;;;18.60;73.20;19.60;100581.00;;;;5087161;28;20188;-50
2022/10/26 01:47:44;;;;;;;2.40;1.70;;;18.60;73.20;19.60;100574.00;;;;5095333;28;20169;-50
2022/10/26 01:50:09;;;;;;;1.60;1.50;;;18.50;73.10;19.60;100562.00;;;;5092075;28;20191;-49
2022/10/26 01:52:35;;;;;;;1.90;1.60;;;18.60;73.20;19.60;100576.00;;;;5087402;28;20180;-49
2022/10/26 01:55:25;;;;;;;1.77;1.50;;;18.60;73.20;19.60;100567.00;;;;5088079;28;20647;-50
2022/10/26 01:57:52;;;;;;;1.73;1.63;;;18.50;73.10;19.60;100568.00;;;;5087827;28;20681;-51
2022/10/26 02:00:17;;;;;;;1.70;1.60;;;18.60;73.20;19.60;100564.00;;;;5086814;28;20702;-49
2022/10/26 02:02:53;;;;;;;2.27;1.80;;;18.50;73.10;19.60;100578.00;;;;5088115;28;20222;-49
2022/10/26 02:05:44;;;;;;;2.00;1.80;;;18.60;73.20;19.60;100568.00;;;;5088043;28;20177;-49
2022/10/26 02:08:46;;;;;;;1.60;1.50;;;18.50;73.10;19.50;100555.00;;;;5088056;28;20177;-49
2022/10/26 02:11:47;;;;;;;1.53;1.43;;;18.50;73.10;19.50;100559.00;;;;5088880;28;20618;-49
2022/10/26 02:14:25;;;;;;;1.60;1.50;;;18.50;73.10;19.50;100573.00;;;;5086764;28;20181;-50
2022/10/26 02:16:57;;;;;;;1.70;1.60;;;18.50;73.10;19.50;100559.00;;;;5086980;28;20539;-51
2022/10/26 02:19:43;;;;;;;1.70;1.60;;;18.50;73.10;19.50;100551.00;;;;5087655;28;20206;-51
2022/10/26 02:22:38;;;;;;;2.13;1.90;;;18.50;73.10;19.50;100561.00;;;;5089975;28;20201;-49
2022/10/26 02:25:18;;;;;;;2.57;1.60;;;18.50;73.10;19.40;100560.00;;;;5090293;28;20185;-50
2022/10/26 02:27:48;;;;;;;1.70;1.60;;;18.50;73.10;19.40;100557.00;;;;5090443;28;20165;-49
2022/10/26 02:30:13;;;;;;;1.80;1.70;;;18.50;73.10;19.40;100537.00;;;;5074444;28;20194;-50
2022/10/26 02:32:43;;;;;;;1.70;1.60;;;18.50;73.30;19.40;100545.00;;;;5090890;28;20252;-49
2022/10/26 02:35:08;;;;;;;2.00;1.63;;;18.50;73.10;19.40;100547.00;;;;5090677;28;20181;-48
2022/10/26 02:37:34;;;;;;;2.77;1.60;;;18.40;73.00;19.40;100549.00;;;;5090752;28;20180;-50
2022/10/26 02:40:03;;;;;;;1.67;1.57;;;18.50;73.10;19.40;100540.00;;;;5090184;28;20192;-50
2022/10/26 02:42:28;;;;;;;2.20;1.67;;;18.50;73.10;19.40;100537.00;;;;5073505;28;20242;-50
2022/10/26 02:44:56;;;;;;;1.73;1.50;;;18.50;73.10;19.50;100545.00;;;;5090304;28;20176;-51
2022/10/26 02:47:22;;;;;;;2.10;1.53;;;18.50;73.10;19.50;100536.00;;;;5092039;28;20668;-50
2022/10/26 02:49:48;;;;;;;1.70;1.60;;;18.50;73.10;19.50;100540.00;;;;5089726;28;20314;-49
2022/10/26 02:52:57;;;;;;;1.70;1.60;;;18.50;73.10;19.50;100538.00;;;;5089951;28;20181;-51
2022/10/26 02:55:27;;;;;;;1.70;1.60;;;18.40;73.00;19.50;100531.00;;;;5090086;28;20790;-50
2022/10/26 02:57:59;;;;;;;1.60;1.50;;;18.40;73.00;19.40;100531.00;;;;5080936;28;20224;-49
2022/10/26 03:00:25;;;;;;;1.70;1.60;;;18.40;73.00;19.40;100521.00;;;;5097451;28;20228;-51
2022/10/26 03:02:57;;;;;;;1.90;1.70;;;18.40;73.00;19.40;100521.00;;;;5091112;28;20240;-50
2022/10/26 03:05:26;;;;;;;1.70;1.60;;;18.40;73.00;19.40;100526.00;;;;5089791;28;20170;-50
2022/10/26 03:07:51;;;;;;;1.90;1.70;;;18.40;73.10;19.40;100520.00;;;;5089821;28;20173;-49
2022/10/26 03:10:17;;;;;;;2.17;1.50;;;18.40;73.00;19.40;100513.00;;;;5091183;28;20554;-51
2022/10/26 03:12:43;;;;;;;1.57;1.47;;;18.40;73.00;19.40;100513.00;;;;5090903;28;20226;-50
2022/10/26 03:15:09;;;;;;;2.20;1.50;;;18.40;73.00;19.40;100525.00;;;;5090769;28;20774;-49
2022/10/26 03:17:35;;;;;;;1.60;1.50;;;18.40;73.00;19.40;100523.00;;;;5091316;28;20256;-50
2022/10/26 03:20:01;;;;;;;2.03;1.50;;;18.30;73.00;19.40;100526.00;;;;5093491;28;20204;-49
2022/10/26 03:22:26;;;;;;;1.73;1.63;;;18.30;72.90;19.40;100532.00;;;;5092924;28;20224;-51
2022/10/26 03:24:52;;;;;;;1.80;1.70;;;18.30;73.10;19.40;100537.00;;;;5090647;28;20684;-49
2022/10/26 03:27:18;;;;;;;1.70;1.40;;;18.30;73.00;19.40;100531.00;;;;5090665;28;20211;-49
2022/10/26 03:29:43;;;;;;;6.10;1.80;;;18.30;73.20;19.40;100529.00;;;;5090424;28;20285;-49
2022/10/26 03:32:09;;;;;;;3.97;1.80;;;18.30;73.40;19.40;100530.00;;;;5090605;28;20212;-50
2022/10/26 03:34:35;;;;;;;4.60;1.70;;;18.30;73.10;19.40;100522.00;;;;5089510;28;20747;-50
2022/10/26 03:37:00;;;;;;;4.03;1.60;;;18.40;73.00;19.40;100520.00;;;;5090485;28;20222;-50
2022/10/26 03:39:26;;;;;;;4.57;1.80;;;18.40;73.00;19.40;100519.00;;;;5090315;28;20262;-50
2022/10/26 03:41:52;;;;;;;2.93;1.90;;;18.40;73.00;19.40;100514.00;;;;5090393;28;20668;-50
2022/10/26 03:44:18;;;;;;;3.67;1.60;;;18.40;73.00;19.40;100520.00;;;;5080018;28;20204;-53
2022/10/26 03:46:43;;;;;;;3.13;1.50;;;18.40;73.00;19.40;100529.00;;;;5070969;28;20249;-51
2022/10/26 03:49:09;;;;;;;2.27;1.50;;;18.40;73.00;19.40;100533.00;;;;5069999;28;20304;-50
2022/10/26 03:51:35;;;;;;;2.80;1.70;;;18.30;72.90;19.40;100527.00;;;;5070127;28;20166;-50
2022/10/26 03:54:00;;;;;;;3.57;1.63;;;18.30;72.90;19.30;100537.00;;;;5070212;28;20642;-50
2022/10/26 03:56:26;;;;;;;1.77;1.60;;;18.30;72.90;19.30;100528.00;;;;5071012;28;20178;-50
2022/10/26 03:58:52;;;;;;;3.73;1.50;;;18.30;72.90;19.30;100528.00;;;;5070793;28;20188;-50
2022/10/26 04:01:18;;;;;;;3.10;1.70;;;18.30;72.90;19.30;100529.00;;;;5070488;28;20182;-50
2022/10/26 04:03:43;;;;;;;2.00;1.63;;;18.30;72.90;19.30;100527.00;;;;5069959;28;20198;-50
2022/10/26 04:06:09;;;;;;;2.33;1.70;;;18.30;72.90;19.30;100524.00;;;;5070109;28;20191;-50
2022/10/26 04:08:35;;;;;;;3.10;1.60;;;18.30;72.90;19.30;100524.00;;;;5075110;28;20170;-50
2022/10/26 04:11:01;;;;;;;3.03;1.70;;;18.30;72.90;19.30;100521.00;;;;5075703;28;20239;-50
2022/10/26 04:13:27;;;;;;;1.77;1.50;;;18.30;72.90;19.30;100532.00;;;;5069540;28;20575;-50
2022/10/26 04:15:52;;;;;;;2.23;1.50;;;18.30;72.90;19.30;100532.00;;;;5069743;28;20205;-49
2022/10/26 04:18:18;;;;;;;2.50;1.90;;;18.30;72.90;19.30;100540.00;;;;5069649;28;20275;-49
2022/10/26 04:20:44;;;;;;;2.67;1.67;;;18.20;72.80;19.30;100528.00;;;;5069225;28;20232;-50
2022/10/26 04:23:14;;;;;;;2.70;1.90;;;18.20;72.80;19.30;100536.00;;;;5069315;28;20281;-51
2022/10/26 04:25:40;;;;;;;3.23;1.73;;;18.20;72.80;19.30;100523.00;;;;5068814;28;20164;-49
2022/10/26 04:28:06;;;;;;;3.87;1.83;;;18.20;72.70;19.20;100524.00;;;;5068327;28;20248;-50
2022/10/26 04:30:33;;;;;;;5.27;2.07;;;18.20;72.60;19.20;100521.00;;;;5069452;28;20557;-50
2022/10/26 04:32:58;;;;;;;4.53;2.20;;;18.20;72.60;19.20;100527.00;;;;5052013;28;20185;-50
2022/10/26 04:35:24;;;;;;;8.60;2.27;;;18.10;72.40;19.20;100525.00;;;;5068284;28;20535;-50
2022/10/26 04:37:51;;;;;;;4.47;1.90;;;18.10;72.40;19.20;100524.00;;;;5069289;28;20257;-50
2022/10/26 04:40:17;;;;;;;6.33;2.57;;;18.10;72.60;19.10;100530.00;;;;5069316;28;20203;-50
2022/10/26 04:42:46;;;;;;;3.63;2.37;;;18.00;72.30;19.10;100527.00;;;;5069255;28;20318;-50
2022/10/26 04:45:14;;;;;;;5.40;2.47;;;18.00;72.50;19.10;100532.00;;;;5067887;28;20710;-51
2022/10/26 04:47:40;;;;;;;5.23;2.30;;;18.00;72.40;19.10;100525.00;;;;5069046;28;20173;-50
2022/10/26 04:50:06;;;;;;;5.10;2.20;;;18.00;73.20;19.10;100533.00;;;;5068582;28;20198;-50
2022/10/26 04:52:32;;;;;;;2.87;2.00;;;18.00;72.30;19.00;100529.00;;;;5068804;28;20174;-51
2022/10/26 04:54:58;;;;;;;4.53;2.10;;;18.00;72.30;19.10;100533.00;;;;5068893;28;20674;-49
2022/10/26 04:57:24;;;;;;;3.97;1.83;;;18.00;72.20;19.10;100533.00;;;;5068711;28;20170;-50
2022/10/26 04:59:49;;;;;;;3.83;2.20;;;18.00;72.20;19.00;100542.00;;;;5068431;28;20208;-50
2022/10/26 05:02:15;;;;;;;4.00;1.97;;;18.00;72.10;19.00;100542.00;;;;5069136;28;20207;-50
2022/10/26 05:04:41;;;;;;;3.33;2.10;;;17.90;72.00;19.00;100527.00;;;;5068625;28;20169;-50
2022/10/26 05:07:06;;;;;;;3.63;2.07;;;18.00;72.10;19.00;100531.00;;;;5068335;28;20219;-50
2022/10/26 05:09:32;;;;;;;4.17;1.80;;;17.90;72.00;19.00;100528.00;;;;5068739;28;20224;-50
2022/10/26 05:11:58;;;;;;;3.80;2.20;;;18.00;72.10;19.00;100529.00;;;;5068559;28;20256;-50
2022/10/26 05:14:23;;;;;;;5.77;2.40;;;18.00;72.10;19.00;100527.00;;;;5068762;28;20185;-50
2022/10/26 05:16:54;;;;;;;2.50;2.10;;;18.00;72.10;19.00;100522.00;;;;5068220;28;20240;-50
2022/10/26 05:19:20;;;;;;;3.10;1.90;;;18.00;72.10;18.80;100522.00;;;;5068700;28;20193;-50
2022/10/26 05:21:46;;;;;;;3.33;2.30;;;18.00;72.10;19.00;100530.00;;;;5072505;28;20172;-49
2022/10/26 05:24:11;;;;;;;3.30;2.00;;;17.90;72.00;19.00;100529.00;;;;5071808;28;20783;-50
2022/10/26 05:26:37;;;;;;;3.33;2.20;;;17.90;71.90;19.00;100530.00;;;;5068400;28;20548;-51
2022/10/26 05:29:03;;;;;;;2.87;2.07;;;17.90;71.90;19.00;100531.00;;;;5068509;28;20185;-50
2022/10/26 05:31:29;;;;;;;2.20;1.87;;;17.90;71.80;19.00;100520.00;;;;5068749;28;20178;-50
2022/10/26 05:33:54;;;;;;;2.37;1.80;;;17.90;72.70;19.00;100527.00;;;;5068745;28;20180;-49
2022/10/26 05:36:20;;;;;;;5.17;2.10;;;17.90;71.70;18.90;100524.00;;;;5067762;28;20173;-52
2022/10/26 05:38:46;;;;;;;3.83;1.80;;;17.90;71.70;18.90;100523.00;;;;5068487;28;20573;-51
2022/10/26 05:41:12;;;;;;;2.27;2.00;;;17.90;71.70;18.90;100512.00;;;;5068355;28;20669;-50
2022/10/26 05:43:37;;;;;;;1.93;1.80;;;17.90;71.70;18.90;100513.00;;;;5068463;28;20197;-49
2022/10/26 05:46:03;;;;;;;2.33;1.70;;;17.90;71.50;18.90;100508.00;;;;5069130;28;20295;-50
2022/10/26 05:48:29;;;;;;;3.10;1.80;;;17.90;71.30;18.90;100508.00;;;;5068178;28;20177;-51
2022/10/26 05:50:59;;;;;;;2.13;1.80;;;17.90;71.10;18.90;100510.00;;;;5068308;28;20544;-50
2022/10/26 05:53:25;;;;;;;2.73;1.90;;;17.90;71.00;18.90;100505.00;;;;5068203;28;20724;-50
2022/10/26 05:55:51;;;;;;;1.93;1.70;;;17.80;70.50;18.90;100498.00;;;;5068273;28;20176;-50
2022/10/26 05:58:17;;;;;;;4.43;1.97;;;17.80;70.70;18.90;100506.00;;;;5072105;28;20173;-49
2022/10/26 06:01:01;;;;;;;1.97;1.70;;;17.80;70.70;18.90;100513.00;;;;5072310;28;20256;-51
2022/10/26 06:03:37;;;;;;;3.00;1.80;;;17.80;70.60;18.90;100507.00;;;;5071084;28;20269;-50
2022/10/26 06:06:03;;;;;;;1.67;1.50;;;17.80;70.70;18.90;100511.00;;;;5072105;28;20165;-50
2022/10/26 06:08:29;;;;;;;1.77;1.50;;;17.80;70.40;18.80;100520.00;;;;5072030;28;20199;-51
2022/10/26 06:10:58;;;;;;;2.33;1.60;;;17.80;70.40;18.80;100530.00;;;;5072161;28;20243;-51
2022/10/26 06:13:24;;;;;;;1.80;1.47;;;17.80;70.50;18.80;100528.00;;;;5072656;28;20203;-50
2022/10/26 06:16:18;;;;;;;3.70;1.70;;;17.80;70.50;18.80;100537.00;;;;5070660;28;20182;-49
2022/10/26 06:18:53;;;;;;;2.30;1.60;;;17.80;70.60;18.80;100546.00;;;;5070781;28;20241;-49
2022/10/26 06:21:37;;;;;;;2.40;1.80;;;17.80;70.50;18.80;100550.00;;;;5071983;28;20255;-49
2022/10/26 06:24:27;;;;;;;1.80;1.60;;;17.80;70.60;18.80;100541.00;;;;5072071;28;20186;-50
2022/10/26 06:27:23;;;;;;;1.90;1.70;;;17.80;70.50;18.80;100542.00;;;;5055715;28;20168;-49
2022/10/26 06:30:05;;;;;;;4.40;1.80;;;17.80;70.50;18.80;100566.00;;;;5070491;28;20581;-50
2022/10/26 06:32:31;;;;;;;2.13;1.60;;;17.80;70.50;18.80;100571.00;;;;5071752;28;20174;-51
2022/10/26 06:35:23;;;;;;;3.13;1.80;;;17.80;70.60;18.80;100507.00;;;;5070231;28;20215;-51
2022/10/26 06:37:49;;;;;;;2.47;1.53;;;17.80;70.50;18.80;100559.00;;;;5071321;28;20162;-50
2022/10/26 06:40:16;;;;;;;2.07;1.83;;;17.70;70.50;18.80;100568.00;;;;5070278;28;20273;-50
2022/10/26 06:42:42;;;;;;;2.13;1.60;;;17.80;70.70;18.80;100566.00;;;;5071257;28;20205;-50
2022/10/26 06:45:15;;;;;;;1.63;1.53;;;17.80;70.80;18.80;100567.00;;;;5071060;28;20286;-49
2022/10/26 06:47:43;;;;;;;1.70;1.60;;;17.70;70.70;18.80;100559.00;;;;5071113;28;20563;-50
2022/10/26 06:50:32;;;;;;;3.00;1.70;;;17.70;70.70;18.80;100567.00;;;;5071218;28;20263;-49
2022/10/26 06:53:19;;;;;;;2.53;1.63;;;17.70;70.70;18.80;100572.00;;;;5071487;28;20478;-51
2022/10/26 06:55:46;;;;;;;1.67;1.50;;;17.70;70.70;18.80;100563.00;;;;5071350;28;20158;-50
2022/10/26 06:58:19;;;;;;;2.67;1.93;;;17.70;70.70;18.80;100561.00;;;;5053219;28;20169;-50
2022/10/26 07:00:47;;;;;;;1.90;1.77;;;17.70;70.70;18.80;100566.00;;;;5057729;28;20242;-49
2022/10/26 07:03:13;;;;;;;2.60;1.60;;;17.60;70.40;18.80;100560.00;;;;5059463;28;20197;-50
2022/10/26 07:05:39;;;;;;;2.90;1.80;;;17.70;70.80;18.80;100567.00;;;;5090830;28;20172;-50
2022/10/26 07:08:05;;;;;;;3.37;1.67;;;17.70;70.70;18.80;100558.00;;;;5089871;28;20165;-50
2022/10/26 07:10:31;;;;;;;2.53;1.70;;;17.60;70.60;18.80;100554.00;;;;5072880;28;20189;-49
2022/10/26 07:12:56;;;;;;;2.00;1.80;;;17.70;70.90;18.80;100551.00;;;;5090431;28;20184;-49
2022/10/26 07:15:22;;;;;;;2.93;1.97;;;17.60;70.80;18.80;100557.00;;;;5085666;28;20184;-50
2022/10/26 07:17:48;;;;;;;2.13;1.73;;;17.60;70.80;18.80;100556.00;;;;5091149;28;20180;-49
2022/10/26 07:20:19;;;;;;;3.40;1.90;;;17.60;70.70;18.80;100569.00;;;;5090386;28;20192;-51
2022/10/26 07:22:50;;;;;;;2.17;1.90;;;17.60;70.70;18.80;100589.00;;;;5090859;28;20181;-52
2022/10/26 07:25:16;;;;;;;4.43;2.10;;;17.60;70.90;18.80;100589.00;;;;5090778;28;20184;-50
2022/10/26 07:27:42;;;;;;;2.50;1.90;;;17.60;70.70;18.70;100591.00;;;;5092071;28;20161;-50
2022/10/26 07:30:08;;;;;;;4.67;1.90;;;17.60;70.80;18.70;100590.00;;;;5093931;28;20260;-50
2022/10/26 07:32:34;;;;;;;3.07;1.90;;;17.60;70.80;18.70;100589.00;;;;5091808;28;20256;-50
2022/10/26 07:35:00;;;;;;;2.57;2.03;;;17.60;70.80;18.70;100589.00;;;;5091036;28;20251;-49
2022/10/26 07:37:25;;;;;;;3.03;1.70;;;17.70;70.90;18.70;100591.00;;;;5090730;28;20668;-51
2022/10/26 07:39:51;;;;;;;2.33;2.10;;;17.60;70.90;18.70;100606.00;;;;5091138;28;20200;-51
2022/10/26 07:42:17;;;;;;;2.43;2.00;;;17.60;71.00;18.80;100591.00;;;;5091241;28;20253;-49
2022/10/26 07:44:42;;;;;;;2.90;2.00;;;17.60;71.00;18.80;100595.00;;;;5090855;28;20533;-50
2022/10/26 07:47:08;;;;;;;2.20;1.83;;;17.60;71.00;18.70;100599.00;;;;5084334;28;20895;-51
2022/10/26 07:49:34;;;;;;;2.20;2.00;;;17.70;71.10;18.70;100604.00;;;;5079744;28;20200;-50
2022/10/26 07:52:00;;;;;;;2.23;1.90;;;17.60;71.10;18.70;100597.00;;;;5091020;28;20222;-50
2022/10/26 07:54:25;;;;;;;2.50;1.80;;;17.70;71.10;18.70;100604.00;;;;5090835;28;20178;-50
2022/10/26 07:56:51;;;;;;;3.87;1.90;;;17.70;71.10;18.80;100607.00;;;;5089664;28;20172;-49
2022/10/26 07:59:17;;;;;;;2.37;2.07;;;17.70;71.20;18.70;100609.00;;;;5089787;28;20210;-50
2022/10/26 08:01:43;;;;;;;3.70;2.00;;;17.70;71.20;18.80;100616.00;;;;5011802;28;20263;-50
2022/10/26 08:04:09;;;;;;;4.37;1.90;;;17.70;71.20;18.80;100602.00;;;;5089245;28;20188;-51
2022/10/26 08:06:34;;;;;;;2.20;1.80;;;17.70;71.20;18.80;100597.00;;;;5089563;28;20176;-49
2022/10/26 08:09:00;;;;;;;2.33;1.97;;;17.70;71.20;18.80;100589.00;;;;5089852;28;20184;-51
2022/10/26 08:11:26;;;;;;;3.57;1.90;;;17.80;71.50;18.80;100592.00;;;;5088768;28;20411;-50
2022/10/26 08:13:52;;;;;;;4.10;2.07;;;17.80;71.40;18.80;100601.00;;;;5088968;28;20184;-50
2022/10/26 08:16:18;;;;;;;4.73;2.13;;;17.80;71.50;18.80;100590.00;;;;5088377;28;20180;-50
2022/10/26 08:18:50;;;;;;;4.20;2.00;;;17.70;71.50;18.80;100596.00;;;;5089782;28;20161;-50
2022/10/26 08:21:15;;;;;;;5.03;2.10;;;17.80;71.50;18.90;100605.00;;;;5088913;28;20260;-51
2022/10/26 08:23:41;;;;;;;2.40;1.90;;;17.80;71.40;18.90;100607.00;;;;5089340;28;20288;-49
2022/10/26 08:26:10;;;;;;;2.13;1.87;;;17.90;71.50;18.90;100607.00;;;;5008406;28;20226;-49
2022/10/26 08:28:37;;;;;;;3.80;2.00;;;17.90;71.50;18.90;100621.00;;;;5086995;28;20644;-50
2022/10/26 08:31:03;;;;;;;2.63;1.80;;;17.90;71.60;18.90;100617.00;;;;5089359;28;20181;-50
2022/10/26 08:33:28;;;;;;;4.83;1.90;;;17.90;71.60;18.90;100623.00;;;;5088828;28;20687;-50
2022/10/26 08:35:59;;;;;;;2.90;2.00;;;17.90;71.90;18.90;100628.00;;;;5087331;28;20191;-50
2022/10/26 08:38:25;;;;;;;3.40;1.87;;;17.90;71.90;19.00;100634.00;;;;5089758;28;20169;-49
2022/10/26 08:40:51;;;;;;;2.97;2.00;;;17.90;72.00;19.00;100635.00;;;;5089854;28;20207;-50
2022/10/26 08:43:33;;;;;;;4.27;2.10;;;17.90;72.00;19.00;100633.00;;;;5089072;28;20821;-49
2022/10/26 08:46:05;;;;;;;11.30;2.30;;;18.00;72.40;19.00;100629.00;;;;5087918;28;20759;-49
2022/10/26 08:48:37;;;;;;;5.33;2.10;;;18.00;72.40;19.00;100647.00;;;;5089250;28;20180;-50
2022/10/26 08:51:34;;;;;;;6.50;2.10;;;18.00;72.40;19.00;100648.00;;;;5087694;28;20634;-50
2022/10/26 08:54:04;;;;;;;6.97;2.10;;;18.00;72.60;19.00;100655.00;;;;5083046;28;20185;-49
2022/10/26 08:56:48;;;;;;;4.07;2.00;;;18.00;72.50;19.00;100647.00;;;;5088133;28;20480;-49
2022/10/26 08:59:28;;;;;;;5.57;1.80;;;18.00;72.60;19.00;100653.00;;;;5088239;28;20557;-51
2022/10/26 09:01:54;;;;;;;3.73;2.00;;;18.00;72.90;19.00;100639.00;;;;5089083;28;20165;-52
2022/10/26 09:04:26;;;;;;;3.20;1.97;;;18.00;72.70;19.00;100653.00;;;;5089004;28;20548;-52
2022/10/26 09:07:04;;;;;;;2.33;1.87;;;18.00;72.60;19.00;100638.00;;;;5072532;28;20169;-51
2022/10/26 09:10:27;;;;;;;4.37;2.20;;;18.00;72.60;19.00;100652.00;;;;5087887;28;20192;-51
2022/10/26 09:13:23;;;;;;;3.43;1.90;;;18.00;72.60;19.00;100648.00;;;;5064958;28;20192;-53
2022/10/26 09:16:18;;;;;;;3.20;1.90;;;17.90;72.50;19.00;100662.00;;;;5059433;28;20689;-51
2022/10/26 09:19:30;;;;;;;3.67;2.10;;;18.00;72.70;19.00;100667.00;;;;5088279;28;20168;-51
2022/10/26 09:22:21;;;;;;;2.90;2.03;;;18.00;72.70;19.00;100673.00;;;;5089906;28;20653;-51
2022/10/26 09:24:56;;;;;;;3.50;2.10;;;18.00;72.60;19.00;100675.00;;;;5088213;28;20180;-51
2022/10/26 09:27:40;;;;;;;2.10;1.90;;;18.00;72.60;19.10;100668.00;;;;5071305;28;20152;-52
2022/10/26 09:30:14;;;;;;;2.90;2.13;;;18.00;72.60;19.10;100685.00;;;;5071509;28;20204;-51
2022/10/26 09:32:43;;;;;;;2.50;2.00;;;18.00;72.60;19.10;100702.00;;;;5070574;28;20199;-51
2022/10/26 09:35:20;;;;;;;1.90;1.80;;;18.00;72.70;19.10;100698.00;;;;5054501;28;20652;-51
2022/10/26 09:37:50;;;;;;;3.83;2.03;;;18.00;72.90;19.10;100706.00;;;;5055880;28;20230;-51
2022/10/26 09:40:48;;;;;;;3.00;1.80;;;18.00;72.90;19.10;100722.00;;;;5072453;28;20559;-51
2022/10/26 09:43:23;;;;;;;4.67;2.13;;;18.10;73.10;19.10;100722.00;;;;5065968;28;20217;-51
2022/10/26 09:45:50;;;;;;;3.67;2.13;;;18.00;73.10;19.10;100720.00;;;;5055664;28;20165;-51
2022/10/26 09:48:22;;;;;;;3.87;2.00;;;18.00;73.00;19.10;100723.00;;;;5087940;28;20227;-52
2022/10/26 09:50:48;;;;;;;4.70;2.13;;;18.00;73.10;19.10;100729.00;;;;5087725;28;20284;-51
2022/10/26 09:53:14;;;;;;;7.33;2.10;;;18.10;73.20;19.10;100730.00;;;;5087298;28;20177;-53
2022/10/26 09:55:43;;;;;;;4.93;2.00;;;18.00;73.10;19.10;100734.00;;;;5087899;28;20169;-52
2022/10/26 09:58:19;;;;;;;4.47;2.10;;;18.10;73.10;19.10;100730.00;;;;5053755;28;20338;-51
2022/10/26 10:00:45;;;;;;;3.70;2.43;;;18.10;73.30;19.10;100729.00;;;;5071759;28;20223;-51
2022/10/26 10:03:28;;;;;;;3.93;2.20;;;18.10;73.20;19.10;100727.00;;;;5087798;28;20211;-51
2022/10/26 10:06:17;;;;;;;4.53;2.40;;;18.20;73.40;19.20;100735.00;;;;5089365;28;20173;-52
2022/10/26 10:08:45;;;;;;;4.07;2.40;;;18.20;74.20;19.20;100733.00;;;;5028231;28;20172;-50
2022/10/26 10:11:13;;;;;;;2.83;2.13;;;18.20;73.40;19.20;100742.00;;;;5052669;28;20201;-50
2022/10/26 10:13:43;;;;;;;4.27;2.23;;;18.20;73.30;19.20;100744.00;;;;5069040;28;20158;-51
2022/10/26 10:16:22;;;;;;;4.23;2.40;;;18.20;73.50;19.20;100754.00;;;;5087305;28;20559;-52
2022/10/26 10:18:57;;;;;;;4.03;2.30;;;18.20;73.50;19.20;100752.00;;;;5088199;28;20188;-51
2022/10/26 10:21:43;;;;;;;4.77;2.60;;;18.20;73.40;19.20;100743.00;;;;5086966;28;20207;-51
2022/10/26 10:24:31;;;;;;;3.93;2.50;;;18.30;73.50;19.30;100740.00;;;;5086147;28;20204;-51
2022/10/26 10:27:16;;;;;;;4.53;2.37;;;18.30;73.50;19.30;100748.00;;;;5066474;28;20182;-52
2022/10/26 10:29:55;;;;;;;4.00;2.30;;;18.30;73.70;19.20;100761.00;;;;5067792;28;20720;-51
2022/10/26 10:32:24;;;;;;;3.80;2.33;;;18.30;73.80;19.30;100678.00;;;;5066636;28;20161;-51
2022/10/26 10:34:52;;;;;;;4.50;2.43;;;18.30;73.70;19.30;100769.00;;;;5067271;28;20191;-51
2022/10/26 10:37:33;;;;;;;8.53;2.70;;;18.40;73.80;19.30;100768.00;;;;5067996;28;20605;-51
2022/10/26 10:40:26;;;;;;;6.27;2.77;;;18.40;73.80;19.40;100774.00;;;;5066488;28;20643;-52
2022/10/26 10:42:54;;;;;;;3.60;2.43;;;18.40;73.80;19.40;100769.00;;;;5062136;28;20212;-52
2022/10/26 10:45:25;;;;;;;3.13;2.20;;;18.50;73.70;19.40;100778.00;;;;5073067;28;20725;-52
2022/10/26 10:48:39;;;;;;;5.00;2.50;;;18.50;73.70;19.40;100776.00;;;;5089827;28;20180;-52
2022/10/26 10:51:11;;;;;;;5.73;2.40;;;18.50;73.80;19.40;100787.00;;;;5090101;28;20193;-52
2022/10/26 10:53:50;;;;;;;7.10;2.77;;;18.50;73.90;19.50;100797.00;;;;5090882;28;20641;-51
2022/10/26 10:56:27;;;;;;;4.53;2.80;;;18.60;73.90;19.50;100793.00;;;;5081647;28;20265;-51
2022/10/26 10:59:16;;;;;;;6.73;2.60;;;18.60;73.70;19.50;100796.00;;;;5074842;28;20179;-51
2022/10/26 11:02:17;;;;;;;4.53;2.93;;;18.70;73.90;19.60;100793.00;;;;5086393;28;20212;-51
2022/10/26 11:05:10;;;;;;;5.77;2.77;;;18.70;73.30;19.60;100798.00;;;;5062791;28;20193;-50
2022/10/26 11:07:52;;;;;;;6.70;3.03;;;18.70;73.30;19.60;100793.00;;;;5090181;28;20221;-51